Latest Weather Observations for King Island Airport

IDT60801

Issued at 10:02 am EST Sunday 25 September 2016 (issued every 30 minutes, with the page automatically refreshed every 10 minutes)

About weather observations | Map of weather stations | Latest weather observations for TAS | Other Formats
Station Details ID: 098017 Name: KING ISLAND AIRPORT Lat: -39.88 Lon: 143.88 Height: 37.0 m
Data from the previous 72 hours. | See also: Recent months at King Island Airport
Date/Time
EST
Temp
°C
App
Temp
°C
Dew
Point
°C
Rel
Hum
%
Delta-T
°C
Wind Press
QNH
hPa
Press
MSL
hPa
Rain since
9am
mm
Dir  Spd
km/h
Gust
km/h
Spd
kts
Gust
kts
25/10:00am 11.8 5.2 5.9 67 2.8 W 30 44 16 24 1009.7 1009.8 0.0
25/09:30am 11.7 4.2 4.4 61 3.3 WSW 33 41 18 22 1009.4 1009.5 0.0
25/09:00am 10.5 4.5 5.5 71 2.3 WSW 26 33 14 18 1009.2 1009.3 10.0
25/08:30am 10.8 3.8 4.3 64 2.9 WSW 30 39 16 21 1008.9 1009.0 10.0
25/08:00am 10.2 5.0 5.4 72 2.2 WSW 22 35 12 19 1008.5 1008.6 10.0
25/07:43am 10.4 4.0 5.2 70 2.4 W 28 48 15 26 1008.2 1008.3 10.0
25/07:30am 10.8 3.9 4.7 66 2.8 WSW 30 43 16 23 1008.0 1008.1 10.0
25/07:00am 9.9 3.0 4.5 69 2.4 WSW 30 39 16 21 1007.8 1007.9 10.0
25/06:30am 9.4 2.8 4.2 70 2.3 WSW 28 48 15 26 1007.5 1007.6 10.0
25/06:21am 9.5 2.9 4.3 70 2.3 W 28 48 15 26 1007.4 1007.5 10.0
25/06:00am 9.8 3.7 4.6 70 2.3 W 26 37 14 20 1007.0 1007.1 10.0
25/05:30am 10.0 3.6 5.2 72 2.2 W 28 39 15 21 1006.9 1007.0 10.0
25/05:00am 9.7 3.7 5.1 73 2.1 W 26 41 14 22 1006.5 1006.6 10.0
25/04:30am 10.1 3.6 4.5 68 2.5 W 28 44 15 24 1006.2 1006.3 10.0
25/04:00am 10.0 4.0 5.2 72 2.2 W 26 37 14 20 1006.0 1006.1 10.0
25/03:34am 10.1 3.6 4.9 70 2.3 W 28 46 15 25 1005.8 1005.9 10.0
25/03:30am 10.1 3.7 5.3 72 2.2 W 28 37 15 20 1005.8 1005.9 10.0
25/03:02am 10.7 4.6 6.6 76 1.9 W 28 50 15 27 1005.5 1005.6 10.0
25/03:00am 10.8 4.7 6.7 76 1.9 W 28 39 15 21 1005.4 1005.5 10.0
25/02:31am 10.9 4.7 6.3 73 2.2 W 28 46 15 25 1005.5 1005.6 10.0
25/02:30am 10.9 5.2 6.5 74 2.1 W 26 41 14 22 1005.5 1005.6 10.0
25/02:00am 10.8 4.9 6.0 72 2.2 W 26 33 14 18 1005.5 1005.6 10.0
25/01:30am 11.0 5.3 6.6 74 2.1 WSW 26 33 14 18 1005.4 1005.5 10.0
25/01:00am 10.9 5.3 7.0 77 1.9 W 26 32 14 17 1005.2 1005.3 10.0
25/12:30am 11.0 5.1 7.5 79 1.7 W 28 37 15 20 1005.0 1005.0 10.0
25/12:00am 11.5 5.5 8.7 83 1.4 W 30 43 16 23 1004.9 1004.9 10.0
 
Date/Time
EST
Temp
°C
App
Temp
°C
Dew
Point
°C
Rel
Hum
%
Delta-T
°C
Wind Press
QNH
hPa
Press
MSL
hPa
Rain since
9am
mm
Dir  Spd
km/h
Gust
km/h
Spd
kts
Gust
kts
24/11:30pm 11.6 6.4 8.8 83 1.4 WSW 26 35 14 19 1004.7 1004.7 10.0
24/11:00pm 11.6 6.3 9.9 89 0.9 WSW 28 37 15 20 1004.6 1004.6 10.0
24/10:30pm 11.3 5.8 10.4 94 0.5 WSW 30 39 16 21 1004.4 1004.4 10.0
24/10:25pm 11.1 5.5 10.3 95 0.4 WSW 30 41 16 22 1004.2 1004.2 10.0
24/10:14pm 11.0 5.5 10.4 96 0.3 WSW 30 41 16 22 1004.1 1004.1 10.0
24/10:03pm 11.9 7.0 11.4 97 0.3 NNW 28 37 15 20 1004.0 1004.0 10.0
24/10:02pm 12.1 7.3 11.6 97 0.3 NNW 28 37 15 20 1004.0 1004.0 10.0
24/10:00pm 12.6 7.9 12.1 97 0.3 N 28 37 15 20 1003.8 1003.8 9.6
24/09:47pm 12.4 6.9 11.9 97 0.3 N 32 41 17 22 1003.8 1003.8 8.8
24/09:38pm 12.4 6.7 11.8 96 0.3 N 33 46 18 25 1003.8 1003.8 7.4
24/09:30pm 12.6 7.0 12.0 96 0.3 N 33 46 18 25 1003.8 1003.8 6.6
24/09:00pm 12.9 8.3 12.3 96 0.3 N 28 37 15 20 1003.9 1003.9 5.6
24/08:55pm 13.0 8.4 12.4 96 0.3 NNW 28 37 15 20 1003.8 1003.8 5.4
24/08:45pm 13.0 9.1 12.2 95 0.4 NNW 24 32 13 17 1003.9 1003.9 5.0
24/08:30pm 13.0 8.7 12.1 94 0.5 NNW 26 35 14 19 1003.9 1003.9 4.0
24/08:29pm 13.0 8.3 12.1 94 0.5 NNW 28 35 15 19 1003.9 1003.9 4.0
24/08:10pm 13.2 8.4 11.6 90 0.9 N 28 39 15 21 1003.9 1003.9 1.2
24/08:00pm 13.4 8.9 11.5 88 1.0 N 26 35 14 19 1003.8 1003.8 0.6
24/07:30pm 13.6 10.2 11.1 85 1.3 N 20 28 11 15 1003.5 1003.5 0.2
24/07:00pm 14.3 11.0 10.9 80 1.8 N 19 28 10 15 1003.4 1003.4 0.0
24/06:30pm 14.6 10.7 10.8 78 2.0 N 22 30 12 16 1003.2 1003.2 0.0
24/06:00pm 15.3 11.4 10.7 74 2.4 N 22 30 12 16 1003.2 1003.2 0.0
24/05:30pm 15.0 12.1 11.0 77 2.1 NNE 17 22 9 12 1003.0 1003.0 0.0
24/05:00pm 15.0 11.7 11.0 77 2.1 NNE 19 26 10 14 1003.1 1003.1 0.0
24/04:30pm 15.0 10.8 11.0 77 2.1 NNE 24 30 13 16 1003.3 1003.3 0.0
24/04:00pm 15.0 10.7 10.8 76 2.2 NNE 24 35 13 19 1003.4 1003.4 0.0
24/03:30pm 15.1 10.8 10.7 75 2.3 NNE 24 32 13 17 1003.4 1003.4 0.0
24/03:00pm 15.7 11.4 10.9 73 2.6 NNE 24 30 13 16 1003.8 1003.8 0.0
24/02:30pm 15.7 10.6 10.7 72 2.7 NNE 28 33 15 18 1004.0 1004.0 0.0
24/02:00pm 16.1 10.1 10.0 67 3.2 NNE 32 37 17 20 1004.1 1004.1 0.0
24/01:30pm 16.4 11.3 10.7 69 3.0 NNE 28 33 15 18 1004.3 1004.3 0.0
24/01:00pm 17.2 11.8 9.4 60 4.1 NNE 28 39 15 21 1004.6 1004.6 0.0
24/12:30pm 17.1 11.2 9.0 59 4.2 N 30 37 16 20 1005.2 1005.3 0.0
24/12:00pm 17.0 10.5 8.2 56 4.5 N 32 43 17 23 1005.6 1005.7 0.0
24/11:30am 17.1 12.1 10.9 67 3.3 NNE 28 35 15 19 1005.8 1005.9 0.0
24/11:00am 16.1 11.0 10.6 70 2.9 NNE 28 33 15 18 1006.1 1006.2 0.0
24/10:30am 16.2 11.1 10.5 69 3.0 NNE 28 35 15 19 1006.4 1006.5 0.0
24/10:00am 15.9 10.7 10.2 69 3.0 NNE 28 35 15 19 1007.0 1007.1 0.0
24/09:30am 15.4 10.9 10.2 71 2.7 NNE 24 32 13 17 1007.3 1007.4 0.0
24/09:00am 14.7 9.2 9.3 70 2.8 N 28 35 15 19 1007.7 1007.8 0.0
24/08:30am 13.8 9.7 11.5 86 1.2 NNE 24 32 13 17 1007.8 1007.9 0.0
24/08:00am 13.0 9.9 12.2 95 0.4 NNE 20 26 11 14 1008.0 1008.1 0.0
24/07:30am 11.9 9.2 11.6 98 0.2 NNE 17 22 9 12 1008.1 1008.2 0.0
24/07:00am 10.5 7.8 10.2 98 0.2 NNE 15 19 8 10 1008.1 1008.2 0.0
24/06:30am 10.3 7.8 9.8 97 0.3 NE 13 17 7 9 1008.0 1008.1 0.0
24/06:00am 10.5 8.1 10.0 97 0.3 NE 13 15 7 8 1008.2 1008.3 0.0
24/05:30am 10.8 8.4 10.2 96 0.3 NE 13 17 7 9 1008.1 1008.2 0.0
24/05:00am 10.7 8.3 10.1 96 0.3 NE 13 17 7 9 1008.2 1008.3 0.0
24/04:30am 10.8 8.4 10.0 95 0.4 NE 13 17 7 9 1008.4 1008.5 0.0
24/04:00am 11.3 8.6 10.4 94 0.5 NE 15 20 8 11 1008.5 1008.6 0.0
24/03:30am 11.4 8.4 10.5 94 0.5 NE 17 22 9 12 1008.7 1008.8 0.0
24/03:00am 11.5 8.1 10.4 93 0.6 NE 19 24 10 13 1008.9 1009.0 0.0
24/02:30am 11.6 8.2 10.5 93 0.6 NE 19 28 10 15 1009.2 1009.3 0.0
24/02:00am 11.6 8.2 10.5 93 0.6 NE 19 26 10 14 1009.6 1009.7 0.0
24/01:30am 11.7 7.7 10.4 92 0.7 ENE 22 28 12 15 1009.9 1010.0 0.0
24/01:00am 11.8 8.2 10.4 91 0.7 ENE 20 30 11 16 1010.3 1010.3 0.0
24/12:30am 11.8 8.2 10.4 91 0.7 ENE 20 28 11 15 1010.4 1010.4 0.0
24/12:00am 11.7 8.0 10.1 90 0.8 ENE 20 28 11 15 1010.7 1010.7 0.0
 
Date/Time
EST
Temp
°C
App
Temp
°C
Dew
Point
°C
Rel
Hum
%
Delta-T
°C
Wind Press
QNH
hPa
Press
MSL
hPa
Rain since
9am
mm
Dir  Spd
km/h
Gust
km/h
Spd
kts
Gust
kts
23/11:30pm 11.9 7.9 10.3 90 0.8 ENE 22 32 12 17 1011.0 1011.0 0.0
23/11:00pm 11.6 7.5 10.0 90 0.8 ENE 22 32 12 17 1011.1 1011.1 0.0
23/10:30pm 11.7 8.0 10.3 91 0.7 ENE 20 30 11 16 1011.4 1011.4 0.0
23/10:00pm 11.8 7.7 10.2 90 0.8 ENE 22 30 12 16 1011.6 1011.6 0.0
23/09:30pm 11.7 7.6 10.1 90 0.8 ENE 22 32 12 17 1011.8 1011.8 0.0
23/09:00pm 11.4 7.6 9.7 89 0.9 ENE 20 28 11 15 1012.1 1012.1 0.0
23/08:30pm 11.5 7.6 9.4 87 1.1 ENE 20 26 11 14 1012.4 1012.4 0.0
23/08:00pm 11.3 6.9 9.0 86 1.1 ENE 22 32 12 17 1012.3 1012.3 0.0
23/07:30pm 11.1 7.0 8.7 85 1.2 E 20 28 11 15 1012.0 1012.0 0.0
23/07:00pm 11.2 6.3 8.4 83 1.4 E 24 32 13 17 1012.3 1012.3 0.0
23/06:30pm 11.5 7.9 8.4 81 1.5 E 17 20 9 11 1012.6 1012.6 0.0
23/06:00pm 11.6 7.9 8.1 79 1.7 E 17 20 9 11 1012.8 1012.8 0.0
23/05:30pm 11.9 7.8 7.8 76 2.0 E 19 26 10 14 1012.7 1012.7 0.0
23/05:00pm 12.4 8.7 7.9 74 2.2 ENE 17 24 9 13 1012.9 1012.9 0.0
23/04:30pm 12.4 8.2 7.5 72 2.4 ENE 19 26 10 14 1013.1 1013.1 0.0
23/04:00pm 12.6 8.2 7.5 71 2.5 NE 20 28 11 15 1013.1 1013.1 0.0
23/03:30pm 12.9 9.2 7.8 71 2.5 NE 17 24 9 13 1013.2 1013.2 0.0
23/03:00pm 12.8 8.9 7.3 69 2.7 NNE 17 24 9 13 1013.5 1013.5 0.0
23/02:30pm 13.0 8.6 6.6 65 3.1 NE 19 28 10 15 1013.9 1013.9 0.0
23/02:00pm 12.7 9.1 6.7 67 2.9 N 15 17 8 9 1014.1 1014.1 0.0
23/01:30pm 13.2 8.7 7.0 66 3.0 NNE 20 30 11 16 1014.7 1014.7 0.0
23/01:00pm 13.8 9.5 6.9 63 3.3 N 19 30 10 16 1015.0 1015.0 0.0
23/12:30pm 13.3 8.6 5.9 61 3.5 N 20 30 11 16 1015.4 1015.4 0.0
23/12:00pm 13.1 9.8 6.2 63 3.3 NNE 13 22 7 12 1015.6 1015.6 0.0
23/11:30am 12.8 9.1 6.2 64 3.1 NNE 15 22 8 12 1015.9 1015.9 0.0
23/11:00am 12.8 9.5 6.2 64 3.1 ENE 13 19 7 10 1016.5 1016.5 0.0
23/10:30am 11.7 8.1 5.1 64 3.0 NNE 13 19 7 10 1016.9 1016.9 0.0
23/10:00am 11.6 8.9 5.5 66 2.8 NE 9 17 5 9 1017.3 1017.3 0.0
23/09:30am 11.6 8.7 4.8 63 3.1 NNE 9 15 5 8 1017.6 1017.6 0.0
23/09:00am 11.3 8.8 4.5 63 3.1 ENE 7 9 4 5 1017.7 1017.7 0.0
23/08:30am 10.6 8.2 4.3 65 2.8 SW 6 11 3 6 1017.7 1017.7 0.0
23/08:00am 10.6 7.7 4.7 67 2.7 SSW 9 11 5 6 1017.9 1017.9 0.0
23/07:30am 9.8 7.1 5.6 75 1.9 SW 9 9 5 5 1018.0 1018.0 0.0
23/07:00am 9.1 6.3 5.1 76 1.8 WSW 9 11 5 6 1018.0 1018.0 0.0
23/06:30am 8.6 6.1 4.8 77 1.7 SW 7 9 4 5 1017.9 1017.9 0.0
23/06:00am 8.5 5.6 4.5 76 1.8 SSW 9 11 5 6 1017.7 1017.7 0.0
23/05:30am 8.5 5.2 4.3 75 1.8 SSW 11 13 6 7 1017.7 1017.7 0.0
23/05:00am 8.8 5.5 4.4 74 1.9 SSW 11 13 6 7 1017.4 1017.4 0.0
23/04:30am 8.8 6.3 5.0 77 1.7 SSE 7 11 4 6 1017.4 1017.4 0.0
23/04:00am 8.7 6.8 5.1 78 1.6 SE 4 7 2 4 1017.5 1017.5 0.0
23/03:30am 8.9 7.0 5.1 77 1.7 SSE 4 7 2 4 1017.6 1017.6 0.0
23/03:00am 8.9 7.4 4.9 76 1.8 S 2 7 1 4 1017.6 1017.6 0.0
23/02:30am 8.9 6.6 4.7 75 1.9 SE 6 7 3 4 1017.8 1017.8 0.0
23/02:00am 9.0 6.5 4.8 75 1.9 SSE 7 9 4 5 1018.2 1018.2 0.0
23/01:30am 9.1 6.2 4.5 73 2.0 S 9 15 5 8 1018.6 1018.6 0.0
23/01:00am 9.4 6.1 4.6 72 2.1 SSW 11 17 6 9 1018.8 1018.8 0.0
23/12:30am 9.5 6.2 4.5 71 2.2 SW 11 15 6 8 1018.9 1018.9 0.0
23/12:00am 9.4 6.5 4.4 71 2.2 SW 9 13 5 7 1019.0 1019.0 0.0
 
Date/Time
EST
Temp
°C
App
Temp
°C
Dew
Point
°C
Rel
Hum
%
Delta-T
°C
Wind Press
QNH
hPa
Press
MSL
hPa
Rain since
9am
mm
Dir  Spd
km/h
Gust
km/h
Spd
kts
Gust
kts
22/11:30pm 9.6 5.2 4.6 71 2.2 SW 17 24 9 13 1019.1 1019.1 0.0
22/11:00pm 9.6 5.5 4.4 70 2.3 SSW 15 19 8 10 1019.3 1019.3 0.0
22/10:30pm 9.3 6.4 4.7 73 2.1 S 9 13 5 7 1019.4 1019.4 0.0
22/10:00pm 9.6 6.3 4.6 71 2.2 S 11 17 6 9 1019.2 1019.2 0.0
22/09:30pm 9.3 6.0 4.5 72 2.1 S 11 17 6 9 1019.4 1019.4 0.0
22/09:00pm 9.7 6.0 4.3 69 2.4 SSW 13 19 7 10 1019.4 1019.4 0.0
22/08:30pm 9.9 4.5 4.3 68 2.5 SSW 22 32 12 17 1019.7 1019.7 0.0
22/08:00pm 10.0 5.2 4.6 69 2.4 SSW 19 28 10 15 1019.5 1019.5 0.0
22/07:30pm 10.1 5.7 4.7 69 2.4 SSW 17 26 9 14 1019.3 1019.3 0.0
22/07:00pm 10.2 4.8 4.4 67 2.6 SSW 22 30 12 16 1019.3 1019.3 0.0
22/06:30pm 10.3 4.9 4.7 68 2.5 SSW 22 32 12 17 1019.2 1019.2 0.0
22/06:00pm 10.4 4.7 4.8 68 2.5 SW 24 32 13 17 1019.1 1019.1 0.0
22/05:30pm 10.6 5.3 5.2 69 2.5 SW 22 32 12 17 1018.7 1018.7 0.0
22/05:00pm 10.8 4.9 5.6 70 2.4 SW 26 33 14 18 1018.4 1018.4 0.0
22/04:30pm 10.9 4.7 6.1 72 2.2 SSW 28 35 15 19 1018.1 1018.1 0.0
22/04:00pm 11.1 4.4 5.8 70 2.5 SW 30 39 16 21 1017.8 1017.8 0.0
22/03:30pm 11.3 4.7 6.0 70 2.5 SW 30 39 16 21 1017.8 1017.8 0.0
22/03:00pm 11.8 4.7 5.7 66 2.8 SW 32 39 17 21 1017.7 1017.7 0.0
22/02:30pm 11.8 4.9 6.3 69 2.6 SSW 32 41 17 22 1017.6 1017.6 0.0
22/02:00pm 11.8 4.9 6.5 70 2.5 SSW 32 41 17 22 1017.6 1017.6 0.0
22/01:30pm 12.6 5.8 6.9 68 2.7 SSW 32 41 17 22 1017.7 1017.7 0.0
22/01:00pm 12.0 5.0 6.1 67 2.8 SSW 32 46 17 25 1017.8 1017.8 0.0
22/12:30pm 12.4 5.3 6.5 67 2.8 SW 33 44 18 24 1017.9 1017.9 0.0
22/12:00pm 11.3 4.3 7.0 75 2.0 SSW 33 44 18 24 1018.1 1018.1 0.0
22/11:30am 12.3 5.6 7.4 72 2.4 SSW 32 43 17 23 1017.9 1017.9 0.0
22/11:00am 12.5 4.9 7.4 71 2.5 SSW 37 44 20 24 1018.0 1018.0 0.0
22/10:30am 12.2 5.8 7.1 71 2.5 SSW 30 37 16 20 1018.0 1018.0 0.0

Other Formats:

Comma delimited format used in spreadsheet applications
http://www.bom.gov.au/fwo/IDT60801/IDT60801.94850.axf

JavaScript Object Notation format (JSON) in row-major order
http://www.bom.gov.au/fwo/IDT60801/IDT60801.94850.json